sensor_id;sensor_type;location;lat;lon;timestamp;P1;durP1;ratioP1;P2;durP2;ratioP2
3004;SDS011;1512;51.486;6.610;2022-10-20T00:03:01;6.50;;;5.77;;
3004;SDS011;1512;51.486;6.610;2022-10-20T00:07:10;8.07;;;5.53;;
3004;SDS011;1512;51.486;6.610;2022-10-20T00:11:19;8.17;;;5.80;;
3004;SDS011;1512;51.486;6.610;2022-10-20T00:15:29;9.17;;;5.53;;
3004;SDS011;1512;51.486;6.610;2022-10-20T00:19:38;6.57;;;5.93;;
3004;SDS011;1512;51.486;6.610;2022-10-20T00:23:46;10.77;;;7.43;;
3004;SDS011;1512;51.486;6.610;2022-10-20T00:27:55;9.17;;;6.70;;
3004;SDS011;1512;51.486;6.610;2022-10-20T00:32:04;6.43;;;5.00;;
3004;SDS011;1512;51.486;6.610;2022-10-20T00:36:13;9.90;;;6.87;;
3004;SDS011;1512;51.486;6.610;2022-10-20T00:40:24;7.93;;;6.00;;
3004;SDS011;1512;51.486;6.610;2022-10-20T00:49:11;9.13;;;6.63;;
3004;SDS011;1512;51.486;6.610;2022-10-20T00:53:25;8.77;;;6.33;;
3004;SDS011;1512;51.486;6.610;2022-10-20T00:57:35;6.27;;;5.63;;
3004;SDS011;1512;51.486;6.610;2022-10-20T01:01:45;8.80;;;5.50;;
3004;SDS011;1512;51.486;6.610;2022-10-20T01:05:53;11.57;;;7.23;;
3004;SDS011;1512;51.486;6.610;2022-10-20T01:10:02;8.10;;;6.10;;
3004;SDS011;1512;51.486;6.610;2022-10-20T01:14:26;13.07;;;6.93;;
3004;SDS011;1512;51.486;6.610;2022-10-20T01:18:48;10.27;;;6.17;;
3004;SDS011;1512;51.486;6.610;2022-10-20T01:27:43;10.63;;;6.77;;
3004;SDS011;1512;51.486;6.610;2022-10-20T01:32:08;9.70;;;6.50;;
3004;SDS011;1512;51.486;6.610;2022-10-20T01:36:31;8.83;;;6.27;;
3004;SDS011;1512;51.486;6.610;2022-10-20T01:40:49;6.97;;;6.27;;
3004;SDS011;1512;51.486;6.610;2022-10-20T01:45:11;13.17;;;6.07;;
3004;SDS011;1512;51.486;6.610;2022-10-20T01:49:22;10.43;;;6.40;;
3004;SDS011;1512;51.486;6.610;2022-10-20T01:53:32;9.37;;;6.87;;
3004;SDS011;1512;51.486;6.610;2022-10-20T02:02:26;9.20;;;6.10;;
3004;SDS011;1512;51.486;6.610;2022-10-20T02:06:47;7.93;;;5.53;;
3004;SDS011;1512;51.486;6.610;2022-10-20T02:11:00;10.23;;;6.83;;
3004;SDS011;1512;51.486;6.610;2022-10-20T02:19:36;14.50;;;7.63;;
3004;SDS011;1512;51.486;6.610;2022-10-20T02:23:46;11.43;;;6.80;;
3004;SDS011;1512;51.486;6.610;2022-10-20T02:27:57;19.60;;;7.80;;
3004;SDS011;1512;51.486;6.610;2022-10-20T02:32:09;8.17;;;6.70;;
3004;SDS011;1512;51.486;6.610;2022-10-20T02:36:20;9.43;;;6.60;;
3004;SDS011;1512;51.486;6.610;2022-10-20T02:40:31;14.30;;;6.90;;
3004;SDS011;1512;51.486;6.610;2022-10-20T02:49:08;8.83;;;6.87;;
3004;SDS011;1512;51.486;6.610;2022-10-20T02:53:16;8.60;;;6.00;;
3004;SDS011;1512;51.486;6.610;2022-10-20T02:57:25;11.00;;;7.80;;
3004;SDS011;1512;51.486;6.610;2022-10-20T03:01:33;8.43;;;7.13;;
3004;SDS011;1512;51.486;6.610;2022-10-20T03:05:43;10.27;;;7.00;;
3004;SDS011;1512;51.486;6.610;2022-10-20T03:09:52;9.03;;;7.50;;
3004;SDS011;1512;51.486;6.610;2022-10-20T03:14:01;9.77;;;5.90;;
3004;SDS011;1512;51.486;6.610;2022-10-20T03:18:10;16.33;;;6.80;;
3004;SDS011;1512;51.486;6.610;2022-10-20T03:22:18;9.63;;;7.17;;
3004;SDS011;1512;51.486;6.610;2022-10-20T03:26:27;10.63;;;7.67;;
3004;SDS011;1512;51.486;6.610;2022-10-20T03:30:36;17.60;;;7.25;;
3004;SDS011;1512;51.486;6.610;2022-10-20T03:34:46;10.20;;;8.47;;
3004;SDS011;1512;51.486;6.610;2022-10-20T03:38:54;8.60;;;6.53;;
3004;SDS011;1512;51.486;6.610;2022-10-20T03:51:59;8.40;;;7.53;;
3004;SDS011;1512;51.486;6.610;2022-10-20T03:56:08;11.50;;;6.63;;
3004;SDS011;1512;51.486;6.610;2022-10-20T04:00:19;16.07;;;7.93;;
3004;SDS011;1512;51.486;6.610;2022-10-20T04:04:28;14.10;;;7.90;;
3004;SDS011;1512;51.486;6.610;2022-10-20T04:08:36;8.80;;;7.00;;
3004;SDS011;1512;51.486;6.610;2022-10-20T04:12:45;8.20;;;6.80;;
3004;SDS011;1512;51.486;6.610;2022-10-20T04:16:54;10.50;;;7.83;;
3004;SDS011;1512;51.486;6.610;2022-10-20T04:21:02;12.17;;;7.67;;
3004;SDS011;1512;51.486;6.610;2022-10-20T04:25:11;13.23;;;6.87;;
3004;SDS011;1512;51.486;6.610;2022-10-20T04:29:20;12.60;;;8.13;;
3004;SDS011;1512;51.486;6.610;2022-10-20T04:33:28;12.30;;;7.20;;
3004;SDS011;1512;51.486;6.610;2022-10-20T04:37:37;11.80;;;8.07;;
3004;SDS011;1512;51.486;6.610;2022-10-20T04:46:14;11.47;;;7.93;;
3004;SDS011;1512;51.486;6.610;2022-10-20T04:50:22;12.13;;;7.90;;
3004;SDS011;1512;51.486;6.610;2022-10-20T04:58:59;10.75;;;7.42;;
3004;SDS011;1512;51.486;6.610;2022-10-20T05:03:08;9.97;;;8.07;;
3004;SDS011;1512;51.486;6.610;2022-10-20T05:07:17;15.57;;;8.90;;
3004;SDS011;1512;51.486;6.610;2022-10-20T05:15:54;12.40;;;7.53;;
3004;SDS011;1512;51.486;6.610;2022-10-20T05:24:30;11.50;;;7.80;;
3004;SDS011;1512;51.486;6.610;2022-10-20T05:33:08;10.10;;;7.17;;
3004;SDS011;1512;51.486;6.610;2022-10-20T05:37:17;11.40;;;8.33;;
3004;SDS011;1512;51.486;6.610;2022-10-20T05:41:28;13.10;;;7.43;;
3004;SDS011;1512;51.486;6.610;2022-10-20T05:45:39;11.60;;;8.07;;
3004;SDS011;1512;51.486;6.610;2022-10-20T05:49:48;11.47;;;8.00;;
3004;SDS011;1512;51.486;6.610;2022-10-20T05:53:57;11.23;;;7.70;;
3004;SDS011;1512;51.486;6.610;2022-10-20T05:58:06;12.70;;;8.00;;
3004;SDS011;1512;51.486;6.610;2022-10-20T06:02:15;16.90;;;7.97;;
3004;SDS011;1512;51.486;6.610;2022-10-20T06:06:26;11.03;;;7.33;;
3004;SDS011;1512;51.486;6.610;2022-10-20T06:15:06;20.87;;;9.10;;
3004;SDS011;1512;51.486;6.610;2022-10-20T06:19:17;14.20;;;8.87;;
3004;SDS011;1512;51.486;6.610;2022-10-20T06:23:26;12.63;;;9.03;;
3004;SDS011;1512;51.486;6.610;2022-10-20T06:27:35;12.20;;;10.27;;
3004;SDS011;1512;51.486;6.610;2022-10-20T06:31:45;12.93;;;9.30;;
3004;SDS011;1512;51.486;6.610;2022-10-20T06:35:58;17.07;;;10.97;;
3004;SDS011;1512;51.486;6.610;2022-10-20T06:40:07;19.30;;;12.10;;
3004;SDS011;1512;51.486;6.610;2022-10-20T06:44:16;16.77;;;10.70;;
3004;SDS011;1512;51.486;6.610;2022-10-20T06:48:26;29.07;;;10.47;;
3004;SDS011;1512;51.486;6.610;2022-10-20T06:52:35;13.57;;;10.90;;
3004;SDS011;1512;51.486;6.610;2022-10-20T06:56:44;14.70;;;9.13;;
3004;SDS011;1512;51.486;6.610;2022-10-20T07:00:56;8.83;;;7.97;;
3004;SDS011;1512;51.486;6.610;2022-10-20T07:05:08;18.73;;;8.40;;
3004;SDS011;1512;51.486;6.610;2022-10-20T07:13:45;10.10;;;7.63;;
3004;SDS011;1512;51.486;6.610;2022-10-20T07:17:55;13.60;;;7.33;;
3004;SDS011;1512;51.486;6.610;2022-10-20T07:22:03;18.63;;;8.80;;
3004;SDS011;1512;51.486;6.610;2022-10-20T07:26:14;14.40;;;7.67;;
3004;SDS011;1512;51.486;6.610;2022-10-20T07:30:24;9.30;;;7.37;;
3004;SDS011;1512;51.486;6.610;2022-10-20T07:34:33;12.10;;;8.57;;
3004;SDS011;1512;51.486;6.610;2022-10-20T07:38:42;11.20;;;7.47;;
3004;SDS011;1512;51.486;6.610;2022-10-20T07:42:52;12.23;;;7.40;;
3004;SDS011;1512;51.486;6.610;2022-10-20T07:51:29;9.90;;;6.63;;
3004;SDS011;1512;51.486;6.610;2022-10-20T07:55:40;10.77;;;6.97;;
3004;SDS011;1512;51.486;6.610;2022-10-20T07:59:48;11.00;;;7.33;;
3004;SDS011;1512;51.486;6.610;2022-10-20T08:03:57;10.00;;;7.00;;
3004;SDS011;1512;51.486;6.610;2022-10-20T08:08:05;10.37;;;7.43;;
3004;SDS011;1512;51.486;6.610;2022-10-20T08:12:14;11.43;;;8.23;;
3004;SDS011;1512;51.486;6.610;2022-10-20T08:16:26;9.68;;;7.22;;
3004;SDS011;1512;51.486;6.610;2022-10-20T08:20:37;9.50;;;6.87;;
3004;SDS011;1512;51.486;6.610;2022-10-20T08:24:45;9.87;;;7.50;;
3004;SDS011;1512;51.486;6.610;2022-10-20T08:28:54;10.20;;;6.30;;
3004;SDS011;1512;51.486;6.610;2022-10-20T08:33:02;9.13;;;7.20;;
3004;SDS011;1512;51.486;6.610;2022-10-20T08:41:44;9.17;;;6.27;;
3004;SDS011;1512;51.486;6.610;2022-10-20T08:45:56;9.40;;;7.53;;
3004;SDS011;1512;51.486;6.610;2022-10-20T08:50:06;11.30;;;7.20;;
3004;SDS011;1512;51.486;6.610;2022-10-20T08:58:45;6.30;;;5.70;;
3004;SDS011;1512;51.486;6.610;2022-10-20T09:02:54;8.43;;;6.60;;
3004;SDS011;1512;51.486;6.610;2022-10-20T09:07:07;7.70;;;6.70;;
3004;SDS011;1512;51.486;6.610;2022-10-20T09:11:20;9.80;;;7.50;;
3004;SDS011;1512;51.486;6.610;2022-10-20T09:15:30;9.80;;;7.87;;
3004;SDS011;1512;51.486;6.610;2022-10-20T09:19:39;14.47;;;7.17;;
3004;SDS011;1512;51.486;6.610;2022-10-20T09:23:51;7.03;;;6.30;;
3004;SDS011;1512;51.486;6.610;2022-10-20T09:28:02;9.33;;;7.10;;
3004;SDS011;1512;51.486;6.610;2022-10-20T09:32:20;12.33;;;7.30;;
3004;SDS011;1512;51.486;6.610;2022-10-20T09:36:32;8.77;;;6.87;;
3004;SDS011;1512;51.486;6.610;2022-10-20T09:40:56;11.33;;;8.30;;
3004;SDS011;1512;51.486;6.610;2022-10-20T09:45:17;10.20;;;7.50;;
3004;SDS011;1512;51.486;6.610;2022-10-20T09:49:35;9.20;;;7.10;;
3004;SDS011;1512;51.486;6.610;2022-10-20T09:58:01;8.60;;;6.57;;
3004;SDS011;1512;51.486;6.610;2022-10-20T10:10:58;9.57;;;7.30;;
3004;SDS011;1512;51.486;6.610;2022-10-20T10:15:33;8.23;;;7.00;;
3004;SDS011;1512;51.486;6.610;2022-10-20T10:19:33;8.50;;;6.70;;
3004;SDS011;1512;51.486;6.610;2022-10-20T10:23:49;10.13;;;6.97;;
3004;SDS011;1512;51.486;6.610;2022-10-20T10:28:01;9.83;;;6.90;;
3004;SDS011;1512;51.486;6.610;2022-10-20T10:32:14;13.70;;;8.10;;
3004;SDS011;1512;51.486;6.610;2022-10-20T10:36:35;10.70;;;7.20;;
3004;SDS011;1512;51.486;6.610;2022-10-20T10:53:49;9.17;;;6.80;;
3004;SDS011;1512;51.486;6.610;2022-10-20T11:06:49;9.77;;;7.20;;
3004;SDS011;1512;51.486;6.610;2022-10-20T11:11:03;11.77;;;6.80;;
3004;SDS011;1512;51.486;6.610;2022-10-20T11:28:49;10.33;;;7.07;;
3004;SDS011;1512;51.486;6.610;2022-10-20T11:33:19;12.40;;;8.13;;
3004;SDS011;1512;51.486;6.610;2022-10-20T11:37:30;8.47;;;7.20;;
3004;SDS011;1512;51.486;6.610;2022-10-20T11:41:43;10.33;;;7.53;;
3004;SDS011;1512;51.486;6.610;2022-10-20T11:50:19;20.03;;;8.83;;
3004;SDS011;1512;51.486;6.610;2022-10-20T11:54:39;12.70;;;9.07;;
3004;SDS011;1512;51.486;6.610;2022-10-20T11:59:05;16.93;;;8.40;;
3004;SDS011;1512;51.486;6.610;2022-10-20T12:12:27;11.03;;;7.40;;
3004;SDS011;1512;51.486;6.610;2022-10-20T12:21:04;12.43;;;9.67;;
3004;SDS011;1512;51.486;6.610;2022-10-20T12:38:04;14.10;;;10.03;;
3004;SDS011;1512;51.486;6.610;2022-10-20T12:42:29;13.43;;;9.80;;
3004;SDS011;1512;51.486;6.610;2022-10-20T12:46:41;18.37;;;10.30;;
3004;SDS011;1512;51.486;6.610;2022-10-20T12:50:52;12.80;;;9.90;;
3004;SDS011;1512;51.486;6.610;2022-10-20T12:59:33;12.30;;;9.20;;
3004;SDS011;1512;51.486;6.610;2022-10-20T13:12:03;17.73;;;11.90;;
3004;SDS011;1512;51.486;6.610;2022-10-20T13:16:14;14.00;;;9.63;;
3004;SDS011;1512;51.486;6.610;2022-10-20T13:20:28;13.57;;;10.87;;
3004;SDS011;1512;51.486;6.610;2022-10-20T13:24:38;13.63;;;10.10;;
3004;SDS011;1512;51.486;6.610;2022-10-20T13:28:51;16.00;;;10.97;;
3004;SDS011;1512;51.486;6.610;2022-10-20T13:33:05;14.70;;;10.27;;
3004;SDS011;1512;51.486;6.610;2022-10-20T13:42:46;11.77;;;9.10;;
3004;SDS011;1512;51.486;6.610;2022-10-20T13:50:40;11.83;;;9.80;;
3004;SDS011;1512;51.486;6.610;2022-10-20T13:54:51;17.33;;;10.40;;
3004;SDS011;1512;51.486;6.610;2022-10-20T14:03:31;14.20;;;10.33;;
3004;SDS011;1512;51.486;6.610;2022-10-20T14:07:43;11.53;;;9.00;;
3004;SDS011;1512;51.486;6.610;2022-10-20T14:11:57;10.17;;;9.07;;
3004;SDS011;1512;51.486;6.610;2022-10-20T14:16:12;12.77;;;9.83;;
3004;SDS011;1512;51.486;6.610;2022-10-20T14:20:19;11.50;;;9.30;;
3004;SDS011;1512;51.486;6.610;2022-10-20T14:24:30;13.23;;;10.27;;
3004;SDS011;1512;51.486;6.610;2022-10-20T14:28:41;16.30;;;9.80;;
3004;SDS011;1512;51.486;6.610;2022-10-20T14:32:50;10.67;;;9.17;;
3004;SDS011;1512;51.486;6.610;2022-10-20T14:37:00;12.23;;;10.70;;
3004;SDS011;1512;51.486;6.610;2022-10-20T14:41:10;13.97;;;8.40;;
3004;SDS011;1512;51.486;6.610;2022-10-20T14:45:20;12.07;;;8.33;;
3004;SDS011;1512;51.486;6.610;2022-10-20T14:49:36;13.33;;;9.47;;
3004;SDS011;1512;51.486;6.610;2022-10-20T14:53:42;9.37;;;8.47;;
3004;SDS011;1512;51.486;6.610;2022-10-20T14:57:51;19.17;;;10.10;;
3004;SDS011;1512;51.486;6.610;2022-10-20T15:02:12;13.35;;;9.28;;
3004;SDS011;1512;51.486;6.610;2022-10-20T15:06:16;9.87;;;7.90;;
3004;SDS011;1512;51.486;6.610;2022-10-20T15:10:25;10.27;;;8.80;;
3004;SDS011;1512;51.486;6.610;2022-10-20T15:19:38;11.37;;;10.10;;
3004;SDS011;1512;51.486;6.610;2022-10-20T15:23:31;14.00;;;9.17;;
3004;SDS011;1512;51.486;6.610;2022-10-20T15:27:42;18.13;;;10.13;;
3004;SDS011;1512;51.486;6.610;2022-10-20T15:31:51;11.00;;;9.50;;
3004;SDS011;1512;51.486;6.610;2022-10-20T15:36:00;14.13;;;8.90;;
3004;SDS011;1512;51.486;6.610;2022-10-20T15:40:08;8.93;;;8.03;;
3004;SDS011;1512;51.486;6.610;2022-10-20T15:44:18;10.50;;;8.80;;
3004;SDS011;1512;51.486;6.610;2022-10-20T15:48:30;19.10;;;8.67;;
3004;SDS011;1512;51.486;6.610;2022-10-20T15:52:39;15.13;;;12.00;;
3004;SDS011;1512;51.486;6.610;2022-10-20T15:56:47;11.97;;;10.23;;
3004;SDS011;1512;51.486;6.610;2022-10-20T16:00:56;11.47;;;8.73;;
3004;SDS011;1512;51.486;6.610;2022-10-20T16:05:06;13.57;;;8.77;;
3004;SDS011;1512;51.486;6.610;2022-10-20T16:09:15;12.07;;;9.20;;
3004;SDS011;1512;51.486;6.610;2022-10-20T16:13:24;10.93;;;8.97;;
3004;SDS011;1512;51.486;6.610;2022-10-20T16:17:33;11.27;;;8.73;;
3004;SDS011;1512;51.486;6.610;2022-10-20T16:21:42;15.20;;;8.93;;
3004;SDS011;1512;51.486;6.610;2022-10-20T16:25:50;11.73;;;8.20;;
3004;SDS011;1512;51.486;6.610;2022-10-20T16:29:59;10.93;;;9.50;;
3004;SDS011;1512;51.486;6.610;2022-10-20T16:34:09;13.50;;;10.17;;
3004;SDS011;1512;51.486;6.610;2022-10-20T16:38:17;16.53;;;9.63;;
3004;SDS011;1512;51.486;6.610;2022-10-20T16:42:26;13.60;;;9.67;;
3004;SDS011;1512;51.486;6.610;2022-10-20T16:46:37;13.90;;;9.10;;
3004;SDS011;1512;51.486;6.610;2022-10-20T16:50:46;16.10;;;10.00;;
3004;SDS011;1512;51.486;6.610;2022-10-20T16:54:54;12.87;;;10.33;;
3004;SDS011;1512;51.486;6.610;2022-10-20T16:59:03;13.53;;;9.83;;
3004;SDS011;1512;51.486;6.610;2022-10-20T17:07:40;13.60;;;9.83;;
3004;SDS011;1512;51.486;6.610;2022-10-20T17:11:55;12.77;;;10.13;;
3004;SDS011;1512;51.486;6.610;2022-10-20T17:16:11;15.78;;;12.20;;
3004;SDS011;1512;51.486;6.610;2022-10-20T17:20:21;12.00;;;9.50;;
3004;SDS011;1512;51.486;6.610;2022-10-20T17:24:30;15.70;;;10.50;;
3004;SDS011;1512;51.486;6.610;2022-10-20T17:28:38;16.47;;;9.93;;
3004;SDS011;1512;51.486;6.610;2022-10-20T17:32:47;16.60;;;9.97;;
3004;SDS011;1512;51.486;6.610;2022-10-20T17:36:56;11.00;;;9.37;;
3004;SDS011;1512;51.486;6.610;2022-10-20T17:41:05;11.40;;;9.37;;
3004;SDS011;1512;51.486;6.610;2022-10-20T17:45:15;12.83;;;9.87;;
3004;SDS011;1512;51.486;6.610;2022-10-20T17:49:24;14.37;;;9.97;;
3004;SDS011;1512;51.486;6.610;2022-10-20T17:53:34;15.80;;;10.43;;
3004;SDS011;1512;51.486;6.610;2022-10-20T17:57:45;13.70;;;9.73;;
3004;SDS011;1512;51.486;6.610;2022-10-20T18:01:53;13.03;;;8.97;;
3004;SDS011;1512;51.486;6.610;2022-10-20T18:06:13;18.33;;;10.63;;
3004;SDS011;1512;51.486;6.610;2022-10-20T18:10:23;15.27;;;9.70;;
3004;SDS011;1512;51.486;6.610;2022-10-20T18:14:31;13.70;;;10.20;;
3004;SDS011;1512;51.486;6.610;2022-10-20T18:18:40;18.00;;;11.07;;
3004;SDS011;1512;51.486;6.610;2022-10-20T18:22:49;15.03;;;11.53;;
3004;SDS011;1512;51.486;6.610;2022-10-20T18:26:57;19.70;;;11.00;;
3004;SDS011;1512;51.486;6.610;2022-10-20T18:31:07;16.20;;;10.37;;
3004;SDS011;1512;51.486;6.610;2022-10-20T18:35:18;16.97;;;10.20;;
3004;SDS011;1512;51.486;6.610;2022-10-20T18:39:28;16.03;;;10.10;;
3004;SDS011;1512;51.486;6.610;2022-10-20T18:43:40;12.87;;;10.60;;
3004;SDS011;1512;51.486;6.610;2022-10-20T18:47:50;19.43;;;10.57;;
3004;SDS011;1512;51.486;6.610;2022-10-20T18:51:59;16.30;;;10.87;;
3004;SDS011;1512;51.486;6.610;2022-10-20T18:56:12;11.90;;;9.23;;
3004;SDS011;1512;51.486;6.610;2022-10-20T19:00:22;11.97;;;10.27;;
3004;SDS011;1512;51.486;6.610;2022-10-20T19:04:31;14.93;;;10.13;;
3004;SDS011;1512;51.486;6.610;2022-10-20T19:08:40;15.43;;;11.83;;
3004;SDS011;1512;51.486;6.610;2022-10-20T19:12:49;17.90;;;12.30;;
3004;SDS011;1512;51.486;6.610;2022-10-20T19:16:58;17.27;;;11.63;;
3004;SDS011;1512;51.486;6.610;2022-10-20T19:21:07;17.13;;;11.43;;
3004;SDS011;1512;51.486;6.610;2022-10-20T19:25:16;13.10;;;9.60;;
3004;SDS011;1512;51.486;6.610;2022-10-20T19:29:24;15.93;;;10.00;;
3004;SDS011;1512;51.486;6.610;2022-10-20T19:38:02;24.57;;;9.60;;
3004;SDS011;1512;51.486;6.610;2022-10-20T19:42:11;12.27;;;8.93;;
3004;SDS011;1512;51.486;6.610;2022-10-20T19:46:20;12.20;;;8.97;;
3004;SDS011;1512;51.486;6.610;2022-10-20T19:50:29;13.27;;;9.43;;
3004;SDS011;1512;51.486;6.610;2022-10-20T19:54:39;11.33;;;9.90;;
3004;SDS011;1512;51.486;6.610;2022-10-20T19:58:48;14.77;;;9.70;;
3004;SDS011;1512;51.486;6.610;2022-10-20T20:02:57;17.00;;;9.77;;
3004;SDS011;1512;51.486;6.610;2022-10-20T20:07:07;11.20;;;9.70;;
3004;SDS011;1512;51.486;6.610;2022-10-20T20:11:18;12.23;;;9.40;;
3004;SDS011;1512;51.486;6.610;2022-10-20T20:15:29;14.03;;;9.63;;
3004;SDS011;1512;51.486;6.610;2022-10-20T20:19:37;12.77;;;9.93;;
3004;SDS011;1512;51.486;6.610;2022-10-20T20:23:46;12.43;;;9.30;;
3004;SDS011;1512;51.486;6.610;2022-10-20T20:27:56;15.17;;;9.87;;
3004;SDS011;1512;51.486;6.610;2022-10-20T20:32:05;14.73;;;9.63;;
3004;SDS011;1512;51.486;6.610;2022-10-20T20:36:13;13.80;;;9.70;;
3004;SDS011;1512;51.486;6.610;2022-10-20T20:40:22;12.53;;;9.90;;
3004;SDS011;1512;51.486;6.610;2022-10-20T20:44:30;9.43;;;8.43;;
3004;SDS011;1512;51.486;6.610;2022-10-20T20:48:39;11.70;;;9.07;;
3004;SDS011;1512;51.486;6.610;2022-10-20T20:52:48;9.33;;;7.97;;
3004;SDS011;1512;51.486;6.610;2022-10-20T20:56:57;14.10;;;9.03;;
3004;SDS011;1512;51.486;6.610;2022-10-20T21:01:10;13.77;;;7.73;;
3004;SDS011;1512;51.486;6.610;2022-10-20T21:05:20;10.23;;;7.50;;
3004;SDS011;1512;51.486;6.610;2022-10-20T21:09:28;14.07;;;8.43;;
3004;SDS011;1512;51.486;6.610;2022-10-20T21:13:38;12.90;;;9.40;;
3004;SDS011;1512;51.486;6.610;2022-10-20T21:17:47;10.40;;;9.07;;
3004;SDS011;1512;51.486;6.610;2022-10-20T21:21:56;18.40;;;9.40;;
3004;SDS011;1512;51.486;6.610;2022-10-20T21:30:38;11.70;;;9.93;;
3004;SDS011;1512;51.486;6.610;2022-10-20T21:34:46;16.10;;;9.73;;
3004;SDS011;1512;51.486;6.610;2022-10-20T21:38:55;12.30;;;8.50;;
3004;SDS011;1512;51.486;6.610;2022-10-20T21:43:04;10.90;;;8.20;;
3004;SDS011;1512;51.486;6.610;2022-10-20T21:47:15;13.87;;;9.30;;
3004;SDS011;1512;51.486;6.610;2022-10-20T21:51:24;20.60;;;8.73;;
3004;SDS011;1512;51.486;6.610;2022-10-20T21:55:34;12.10;;;8.30;;
3004;SDS011;1512;51.486;6.610;2022-10-20T21:59:43;11.17;;;10.00;;
3004;SDS011;1512;51.486;6.610;2022-10-20T22:03:54;9.93;;;8.70;;
3004;SDS011;1512;51.486;6.610;2022-10-20T22:08:03;16.20;;;8.63;;
3004;SDS011;1512;51.486;6.610;2022-10-20T22:12:12;18.43;;;8.60;;
3004;SDS011;1512;51.486;6.610;2022-10-20T22:16:22;12.67;;;8.20;;
3004;SDS011;1512;51.486;6.610;2022-10-20T22:20:33;13.90;;;10.27;;
3004;SDS011;1512;51.486;6.610;2022-10-20T22:24:43;19.60;;;8.60;;
3004;SDS011;1512;51.486;6.610;2022-10-20T22:28:52;15.13;;;10.00;;
3004;SDS011;1512;51.486;6.610;2022-10-20T22:33:01;15.37;;;8.67;;
3004;SDS011;1512;51.486;6.610;2022-10-20T22:37:10;12.87;;;8.97;;
3004;SDS011;1512;51.486;6.610;2022-10-20T22:41:18;12.40;;;8.60;;
3004;SDS011;1512;51.486;6.610;2022-10-20T22:45:27;12.53;;;8.57;;
3004;SDS011;1512;51.486;6.610;2022-10-20T22:49:35;12.10;;;9.23;;
3004;SDS011;1512;51.486;6.610;2022-10-20T22:53:44;11.33;;;9.10;;
3004;SDS011;1512;51.486;6.610;2022-10-20T22:57:53;14.43;;;9.30;;
3004;SDS011;1512;51.486;6.610;2022-10-20T23:02:02;26.70;;;10.13;;
3004;SDS011;1512;51.486;6.610;2022-10-20T23:06:12;16.03;;;9.73;;
3004;SDS011;1512;51.486;6.610;2022-10-20T23:10:25;10.97;;;9.53;;
3004;SDS011;1512;51.486;6.610;2022-10-20T23:14:33;15.73;;;10.23;;
3004;SDS011;1512;51.486;6.610;2022-10-20T23:18:42;15.10;;;10.30;;
3004;SDS011;1512;51.486;6.610;2022-10-20T23:22:51;13.45;;;10.48;;
3004;SDS011;1512;51.486;6.610;2022-10-20T23:26:59;12.17;;;9.30;;
3004;SDS011;1512;51.486;6.610;2022-10-20T23:31:09;16.00;;;9.97;;
3004;SDS011;1512;51.486;6.610;2022-10-20T23:35:19;16.13;;;9.97;;
3004;SDS011;1512;51.486;6.610;2022-10-20T23:39:28;12.40;;;9.73;;
3004;SDS011;1512;51.486;6.610;2022-10-20T23:43:36;14.97;;;11.03;;
3004;SDS011;1512;51.486;6.610;2022-10-20T23:47:45;18.40;;;12.13;;
3004;SDS011;1512;51.486;6.610;2022-10-20T23:51:54;15.97;;;11.60;;
3004;SDS011;1512;51.486;6.610;2022-10-20T23:56:03;22.83;;;12.43;;
